sensor_id;sensor_type;location;lat;lon;timestamp;P1;durP1;ratioP1;P2;durP2;ratioP2
9968;SDS011;5025;48.890;9.278;2023-04-25T00:02:20;2.10;;;2.00;;
9968;SDS011;5025;48.890;9.278;2023-04-25T00:04:45;2.10;;;2.00;;
9968;SDS011;5025;48.890;9.278;2023-04-25T00:07:11;2.90;;;1.97;;
9968;SDS011;5025;48.890;9.278;2023-04-25T00:09:36;1.97;;;1.70;;
9968;SDS011;5025;48.890;9.278;2023-04-25T00:12:02;1.80;;;1.70;;
9968;SDS011;5025;48.890;9.278;2023-04-25T00:14:27;1.77;;;1.70;;
9968;SDS011;5025;48.890;9.278;2023-04-25T00:16:53;1.70;;;1.60;;
9968;SDS011;5025;48.890;9.278;2023-04-25T00:19:19;1.73;;;1.63;;
9968;SDS011;5025;48.890;9.278;2023-04-25T00:21:44;1.90;;;1.80;;
9968;SDS011;5025;48.890;9.278;2023-04-25T00:24:11;2.03;;;1.93;;
9968;SDS011;5025;48.890;9.278;2023-04-25T00:26:36;1.83;;;1.73;;
9968;SDS011;5025;48.890;9.278;2023-04-25T00:29:01;1.93;;;1.83;;
9968;SDS011;5025;48.890;9.278;2023-04-25T00:31:27;1.50;;;1.50;;
9968;SDS011;5025;48.890;9.278;2023-04-25T00:33:53;1.40;;;1.40;;
9968;SDS011;5025;48.890;9.278;2023-04-25T00:36:19;1.60;;;1.60;;
9968;SDS011;5025;48.890;9.278;2023-04-25T00:38:44;1.80;;;1.80;;
9968;SDS011;5025;48.890;9.278;2023-04-25T00:41:09;1.37;;;1.37;;
9968;SDS011;5025;48.890;9.278;2023-04-25T00:43:36;1.80;;;1.70;;
9968;SDS011;5025;48.890;9.278;2023-04-25T00:46:01;1.80;;;1.70;;
9968;SDS011;5025;48.890;9.278;2023-04-25T00:48:27;1.67;;;1.57;;
9968;SDS011;5025;48.890;9.278;2023-04-25T00:50:53;1.70;;;1.67;;
9968;SDS011;5025;48.890;9.278;2023-04-25T00:53:20;1.63;;;1.60;;
9968;SDS011;5025;48.890;9.278;2023-04-25T00:55:47;2.33;;;1.90;;
9968;SDS011;5025;48.890;9.278;2023-04-25T00:58:12;1.90;;;1.70;;
9968;SDS011;5025;48.890;9.278;2023-04-25T01:00:39;1.90;;;1.80;;
9968;SDS011;5025;48.890;9.278;2023-04-25T01:03:05;1.90;;;1.80;;
9968;SDS011;5025;48.890;9.278;2023-04-25T01:05:31;1.90;;;1.80;;
9968;SDS011;5025;48.890;9.278;2023-04-25T01:07:56;1.90;;;1.80;;
9968;SDS011;5025;48.890;9.278;2023-04-25T01:10:22;1.90;;;1.80;;
9968;SDS011;5025;48.890;9.278;2023-04-25T01:12:47;1.83;;;1.73;;
9968;SDS011;5025;48.890;9.278;2023-04-25T01:15:12;1.57;;;1.50;;
9968;SDS011;5025;48.890;9.278;2023-04-25T01:17:38;1.67;;;1.60;;
9968;SDS011;5025;48.890;9.278;2023-04-25T01:20:06;1.90;;;1.80;;
9968;SDS011;5025;48.890;9.278;2023-04-25T01:22:34;1.80;;;1.70;;
9968;SDS011;5025;48.890;9.278;2023-04-25T01:24:59;1.70;;;1.60;;
9968;SDS011;5025;48.890;9.278;2023-04-25T01:27:25;1.70;;;1.70;;
9968;SDS011;5025;48.890;9.278;2023-04-25T01:29:51;1.70;;;1.70;;
9968;SDS011;5025;48.890;9.278;2023-04-25T01:32:17;1.93;;;1.83;;
9968;SDS011;5025;48.890;9.278;2023-04-25T01:34:43;1.43;;;1.43;;
9968;SDS011;5025;48.890;9.278;2023-04-25T01:37:08;1.70;;;1.60;;
9968;SDS011;5025;48.890;9.278;2023-04-25T01:39:33;3.80;;;2.20;;
9968;SDS011;5025;48.890;9.278;2023-04-25T01:41:59;1.97;;;1.87;;
9968;SDS011;5025;48.890;9.278;2023-04-25T01:44:25;2.20;;;2.10;;
9968;SDS011;5025;48.890;9.278;2023-04-25T01:46:50;2.13;;;2.00;;
9968;SDS011;5025;48.890;9.278;2023-04-25T01:49:16;2.20;;;2.10;;
9968;SDS011;5025;48.890;9.278;2023-04-25T01:51:41;1.90;;;1.80;;
9968;SDS011;5025;48.890;9.278;2023-04-25T01:54:07;1.70;;;1.70;;
9968;SDS011;5025;48.890;9.278;2023-04-25T01:56:36;1.90;;;1.80;;
9968;SDS011;5025;48.890;9.278;2023-04-25T01:59:02;1.87;;;1.77;;
9968;SDS011;5025;48.890;9.278;2023-04-25T02:01:29;1.90;;;1.80;;
9968;SDS011;5025;48.890;9.278;2023-04-25T02:03:54;1.40;;;1.40;;
9968;SDS011;5025;48.890;9.278;2023-04-25T02:06:19;1.80;;;1.70;;
9968;SDS011;5025;48.890;9.278;2023-04-25T02:08:45;2.23;;;2.03;;
9968;SDS011;5025;48.890;9.278;2023-04-25T02:11:10;2.10;;;2.00;;
9968;SDS011;5025;48.890;9.278;2023-04-25T02:13:35;1.90;;;1.80;;
9968;SDS011;5025;48.890;9.278;2023-04-25T02:16:00;1.80;;;1.70;;
9968;SDS011;5025;48.890;9.278;2023-04-25T02:18:26;2.30;;;2.10;;
9968;SDS011;5025;48.890;9.278;2023-04-25T02:20:51;2.17;;;1.97;;
9968;SDS011;5025;48.890;9.278;2023-04-25T02:23:17;2.20;;;2.10;;
9968;SDS011;5025;48.890;9.278;2023-04-25T02:25:43;1.80;;;1.70;;
9968;SDS011;5025;48.890;9.278;2023-04-25T02:28:09;1.93;;;1.80;;
9968;SDS011;5025;48.890;9.278;2023-04-25T02:30:35;2.20;;;2.10;;
9968;SDS011;5025;48.890;9.278;2023-04-25T02:33:00;1.97;;;1.87;;
9968;SDS011;5025;48.890;9.278;2023-04-25T02:35:25;2.57;;;2.37;;
9968;SDS011;5025;48.890;9.278;2023-04-25T02:37:51;2.50;;;2.30;;
9968;SDS011;5025;48.890;9.278;2023-04-25T02:40:16;2.43;;;2.30;;
9968;SDS011;5025;48.890;9.278;2023-04-25T02:42:41;2.50;;;2.40;;
9968;SDS011;5025;48.890;9.278;2023-04-25T02:45:07;2.67;;;2.50;;
9968;SDS011;5025;48.890;9.278;2023-04-25T02:47:32;2.43;;;2.27;;
9968;SDS011;5025;48.890;9.278;2023-04-25T02:49:58;2.60;;;2.40;;
9968;SDS011;5025;48.890;9.278;2023-04-25T02:52:23;1.90;;;1.80;;
9968;SDS011;5025;48.890;9.278;2023-04-25T02:54:48;2.20;;;2.10;;
9968;SDS011;5025;48.890;9.278;2023-04-25T02:57:14;2.50;;;2.30;;
9968;SDS011;5025;48.890;9.278;2023-04-25T02:59:39;2.67;;;2.50;;
9968;SDS011;5025;48.890;9.278;2023-04-25T03:02:05;2.57;;;2.37;;
9968;SDS011;5025;48.890;9.278;2023-04-25T03:04:30;2.33;;;2.20;;
9968;SDS011;5025;48.890;9.278;2023-04-25T03:06:55;2.90;;;2.70;;
9968;SDS011;5025;48.890;9.278;2023-04-25T03:09:20;2.63;;;2.40;;
9968;SDS011;5025;48.890;9.278;2023-04-25T03:11:46;4.50;;;2.60;;
9968;SDS011;5025;48.890;9.278;2023-04-25T03:14:11;2.73;;;2.53;;
9968;SDS011;5025;48.890;9.278;2023-04-25T03:16:38;2.63;;;2.43;;
9968;SDS011;5025;48.890;9.278;2023-04-25T03:19:03;2.57;;;2.37;;
9968;SDS011;5025;48.890;9.278;2023-04-25T03:21:30;2.60;;;2.40;;
9968;SDS011;5025;48.890;9.278;2023-04-25T03:24:00;2.70;;;2.50;;
9968;SDS011;5025;48.890;9.278;2023-04-25T03:26:27;2.70;;;2.47;;
9968;SDS011;5025;48.890;9.278;2023-04-25T03:28:52;3.00;;;2.80;;
9968;SDS011;5025;48.890;9.278;2023-04-25T03:31:17;2.77;;;2.57;;
9968;SDS011;5025;48.890;9.278;2023-04-25T03:33:43;3.83;;;2.87;;
9968;SDS011;5025;48.890;9.278;2023-04-25T03:36:08;2.70;;;2.50;;
9968;SDS011;5025;48.890;9.278;2023-04-25T03:38:34;2.73;;;2.53;;
9968;SDS011;5025;48.890;9.278;2023-04-25T03:41:00;3.00;;;2.70;;
9968;SDS011;5025;48.890;9.278;2023-04-25T03:43:26;3.00;;;2.70;;
9968;SDS011;5025;48.890;9.278;2023-04-25T03:45:51;3.13;;;2.77;;
9968;SDS011;5025;48.890;9.278;2023-04-25T03:48:17;2.90;;;2.70;;
9968;SDS011;5025;48.890;9.278;2023-04-25T03:50:42;2.80;;;2.60;;
9968;SDS011;5025;48.890;9.278;2023-04-25T03:53:07;2.80;;;2.60;;
9968;SDS011;5025;48.890;9.278;2023-04-25T03:55:33;2.63;;;2.43;;
9968;SDS011;5025;48.890;9.278;2023-04-25T03:57:58;3.07;;;2.73;;
9968;SDS011;5025;48.890;9.278;2023-04-25T04:00:24;2.50;;;2.30;;
9968;SDS011;5025;48.890;9.278;2023-04-25T04:02:50;2.63;;;2.53;;
9968;SDS011;5025;48.890;9.278;2023-04-25T04:05:15;2.67;;;2.47;;
9968;SDS011;5025;48.890;9.278;2023-04-25T04:07:40;3.83;;;2.70;;
9968;SDS011;5025;48.890;9.278;2023-04-25T04:10:07;3.03;;;2.80;;
9968;SDS011;5025;48.890;9.278;2023-04-25T04:12:36;3.00;;;2.70;;
9968;SDS011;5025;48.890;9.278;2023-04-25T04:15:02;3.33;;;3.00;;
9968;SDS011;5025;48.890;9.278;2023-04-25T04:17:31;3.33;;;3.00;;
9968;SDS011;5025;48.890;9.278;2023-04-25T04:19:57;3.10;;;2.90;;
9968;SDS011;5025;48.890;9.278;2023-04-25T04:22:23;2.80;;;2.70;;
9968;SDS011;5025;48.890;9.278;2023-04-25T04:24:48;3.10;;;2.47;;
9968;SDS011;5025;48.890;9.278;2023-04-25T04:27:15;3.00;;;2.80;;
9968;SDS011;5025;48.890;9.278;2023-04-25T04:29:42;3.93;;;3.10;;
9968;SDS011;5025;48.890;9.278;2023-04-25T04:32:08;3.20;;;3.00;;
9968;SDS011;5025;48.890;9.278;2023-04-25T04:34:33;3.50;;;3.30;;
9968;SDS011;5025;48.890;9.278;2023-04-25T04:36:59;3.60;;;3.30;;
9968;SDS011;5025;48.890;9.278;2023-04-25T04:39:25;3.20;;;3.00;;
9968;SDS011;5025;48.890;9.278;2023-04-25T04:41:50;3.90;;;3.50;;
9968;SDS011;5025;48.890;9.278;2023-04-25T04:44:16;4.03;;;3.63;;
9968;SDS011;5025;48.890;9.278;2023-04-25T04:46:41;3.90;;;3.60;;
9968;SDS011;5025;48.890;9.278;2023-04-25T04:49:08;3.80;;;3.50;;
9968;SDS011;5025;48.890;9.278;2023-04-25T04:51:34;3.60;;;3.40;;
9968;SDS011;5025;48.890;9.278;2023-04-25T04:53:59;4.17;;;3.80;;
9968;SDS011;5025;48.890;9.278;2023-04-25T04:56:27;4.47;;;4.07;;
9968;SDS011;5025;48.890;9.278;2023-04-25T04:58:56;4.70;;;4.30;;
9968;SDS011;5025;48.890;9.278;2023-04-25T05:01:22;4.50;;;4.10;;
9968;SDS011;5025;48.890;9.278;2023-04-25T05:03:47;4.27;;;3.87;;
9968;SDS011;5025;48.890;9.278;2023-04-25T05:06:13;4.00;;;3.70;;
9968;SDS011;5025;48.890;9.278;2023-04-25T05:08:38;4.03;;;3.63;;
9968;SDS011;5025;48.890;9.278;2023-04-25T05:11:03;4.13;;;3.83;;
9968;SDS011;5025;48.890;9.278;2023-04-25T05:13:28;4.77;;;4.27;;
9968;SDS011;5025;48.890;9.278;2023-04-25T05:15:54;6.70;;;5.93;;
9968;SDS011;5025;48.890;9.278;2023-04-25T05:18:19;5.80;;;5.00;;
9968;SDS011;5025;48.890;9.278;2023-04-25T05:20:45;7.67;;;6.20;;
9968;SDS011;5025;48.890;9.278;2023-04-25T05:23:10;6.53;;;5.63;;
9968;SDS011;5025;48.890;9.278;2023-04-25T05:25:35;4.97;;;4.53;;
9968;SDS011;5025;48.890;9.278;2023-04-25T05:28:01;6.30;;;5.70;;
9968;SDS011;5025;48.890;9.278;2023-04-25T05:30:26;4.10;;;3.70;;
9968;SDS011;5025;48.890;9.278;2023-04-25T05:32:51;4.60;;;4.20;;
9968;SDS011;5025;48.890;9.278;2023-04-25T05:35:16;4.70;;;4.00;;
9968;SDS011;5025;48.890;9.278;2023-04-25T05:37:42;4.50;;;4.10;;
9968;SDS011;5025;48.890;9.278;2023-04-25T05:40:07;4.20;;;3.63;;
9968;SDS011;5025;48.890;9.278;2023-04-25T05:42:33;5.23;;;4.00;;
9968;SDS011;5025;48.890;9.278;2023-04-25T05:44:59;4.27;;;3.97;;
9968;SDS011;5025;48.890;9.278;2023-04-25T05:47:24;4.63;;;4.17;;
9968;SDS011;5025;48.890;9.278;2023-04-25T05:49:49;5.43;;;4.87;;
9968;SDS011;5025;48.890;9.278;2023-04-25T05:52:15;5.73;;;4.97;;
9968;SDS011;5025;48.890;9.278;2023-04-25T05:54:40;5.13;;;4.63;;
9968;SDS011;5025;48.890;9.278;2023-04-25T05:57:06;5.70;;;4.63;;
9968;SDS011;5025;48.890;9.278;2023-04-25T05:59:31;4.67;;;4.27;;
9968;SDS011;5025;48.890;9.278;2023-04-25T06:01:57;4.53;;;4.10;;
9968;SDS011;5025;48.890;9.278;2023-04-25T06:04:22;3.83;;;3.57;;
9968;SDS011;5025;48.890;9.278;2023-04-25T06:06:47;4.07;;;3.77;;
9968;SDS011;5025;48.890;9.278;2023-04-25T06:09:13;3.87;;;3.57;;
9968;SDS011;5025;48.890;9.278;2023-04-25T06:11:38;4.67;;;4.37;;
9968;SDS011;5025;48.890;9.278;2023-04-25T06:14:03;4.20;;;3.80;;
9968;SDS011;5025;48.890;9.278;2023-04-25T06:16:29;4.10;;;3.80;;
9968;SDS011;5025;48.890;9.278;2023-04-25T06:18:54;4.33;;;4.03;;
9968;SDS011;5025;48.890;9.278;2023-04-25T06:21:19;4.77;;;4.23;;
9968;SDS011;5025;48.890;9.278;2023-04-25T06:23:45;4.40;;;4.00;;
9968;SDS011;5025;48.890;9.278;2023-04-25T06:26:10;4.60;;;4.20;;
9968;SDS011;5025;48.890;9.278;2023-04-25T06:28:35;5.27;;;4.40;;
9968;SDS011;5025;48.890;9.278;2023-04-25T06:31:00;4.23;;;3.83;;
9968;SDS011;5025;48.890;9.278;2023-04-25T06:33:26;3.87;;;3.63;;
9968;SDS011;5025;48.890;9.278;2023-04-25T06:35:54;4.00;;;3.60;;
9968;SDS011;5025;48.890;9.278;2023-04-25T06:38:19;3.53;;;3.33;;
9968;SDS011;5025;48.890;9.278;2023-04-25T06:40:45;3.97;;;3.63;;
9968;SDS011;5025;48.890;9.278;2023-04-25T06:43:10;3.80;;;3.60;;
9968;SDS011;5025;48.890;9.278;2023-04-25T06:45:35;3.00;;;2.80;;
9968;SDS011;5025;48.890;9.278;2023-04-25T06:48:04;2.53;;;2.43;;
9968;SDS011;5025;48.890;9.278;2023-04-25T06:50:29;2.80;;;2.70;;
9968;SDS011;5025;48.890;9.278;2023-04-25T06:52:55;2.80;;;2.60;;
9968;SDS011;5025;48.890;9.278;2023-04-25T06:55:20;2.57;;;2.47;;
9968;SDS011;5025;48.890;9.278;2023-04-25T06:57:45;3.17;;;2.97;;
9968;SDS011;5025;48.890;9.278;2023-04-25T07:00:11;3.10;;;2.80;;
9968;SDS011;5025;48.890;9.278;2023-04-25T07:02:36;2.83;;;2.63;;
9968;SDS011;5025;48.890;9.278;2023-04-25T07:05:02;3.30;;;3.10;;
9968;SDS011;5025;48.890;9.278;2023-04-25T07:07:29;3.73;;;3.30;;
9968;SDS011;5025;48.890;9.278;2023-04-25T07:09:55;3.00;;;2.80;;
9968;SDS011;5025;48.890;9.278;2023-04-25T07:12:20;2.90;;;2.80;;
9968;SDS011;5025;48.890;9.278;2023-04-25T07:14:45;3.07;;;2.87;;
9968;SDS011;5025;48.890;9.278;2023-04-25T07:17:11;3.50;;;3.30;;
9968;SDS011;5025;48.890;9.278;2023-04-25T07:19:36;3.47;;;3.20;;
9968;SDS011;5025;48.890;9.278;2023-04-25T07:22:03;3.40;;;3.10;;
9968;SDS011;5025;48.890;9.278;2023-04-25T07:24:29;3.40;;;3.10;;
9968;SDS011;5025;48.890;9.278;2023-04-25T07:26:54;3.33;;;3.10;;
9968;SDS011;5025;48.890;9.278;2023-04-25T07:29:20;3.33;;;3.13;;
9968;SDS011;5025;48.890;9.278;2023-04-25T07:31:45;3.07;;;2.87;;
9968;SDS011;5025;48.890;9.278;2023-04-25T07:34:10;3.20;;;3.00;;
9968;SDS011;5025;48.890;9.278;2023-04-25T07:36:35;2.70;;;2.60;;
9968;SDS011;5025;48.890;9.278;2023-04-25T07:39:03;3.17;;;2.90;;
9968;SDS011;5025;48.890;9.278;2023-04-25T07:41:28;3.13;;;2.97;;
9968;SDS011;5025;48.890;9.278;2023-04-25T07:43:53;3.10;;;2.90;;
9968;SDS011;5025;48.890;9.278;2023-04-25T07:46:19;2.70;;;2.60;;
9968;SDS011;5025;48.890;9.278;2023-04-25T07:48:44;2.60;;;2.50;;
9968;SDS011;5025;48.890;9.278;2023-04-25T07:51:09;3.27;;;3.07;;
9968;SDS011;5025;48.890;9.278;2023-04-25T07:53:35;3.80;;;3.50;;
9968;SDS011;5025;48.890;9.278;2023-04-25T07:56:02;2.77;;;2.67;;
9968;SDS011;5025;48.890;9.278;2023-04-25T07:58:28;3.97;;;3.77;;
9968;SDS011;5025;48.890;9.278;2023-04-25T08:00:53;3.50;;;3.30;;
9968;SDS011;5025;48.890;9.278;2023-04-25T08:03:18;3.40;;;3.20;;
9968;SDS011;5025;48.890;9.278;2023-04-25T08:05:44;3.70;;;3.40;;
9968;SDS011;5025;48.890;9.278;2023-04-25T08:08:09;4.40;;;4.10;;
9968;SDS011;5025;48.890;9.278;2023-04-25T08:10:37;4.67;;;4.37;;
9968;SDS011;5025;48.890;9.278;2023-04-25T08:13:05;4.70;;;4.40;;
9968;SDS011;5025;48.890;9.278;2023-04-25T08:15:30;5.50;;;5.10;;
9968;SDS011;5025;48.890;9.278;2023-04-25T08:17:55;5.17;;;4.73;;
9968;SDS011;5025;48.890;9.278;2023-04-25T08:20:21;5.40;;;5.00;;
9968;SDS011;5025;48.890;9.278;2023-04-25T08:22:46;5.40;;;5.00;;
9968;SDS011;5025;48.890;9.278;2023-04-25T08:25:13;5.40;;;5.03;;
9968;SDS011;5025;48.890;9.278;2023-04-25T08:27:39;4.13;;;3.93;;
9968;SDS011;5025;48.890;9.278;2023-04-25T08:30:04;4.50;;;4.20;;
9968;SDS011;5025;48.890;9.278;2023-04-25T08:32:30;4.50;;;4.20;;
9968;SDS011;5025;48.890;9.278;2023-04-25T08:34:56;4.60;;;4.30;;
9968;SDS011;5025;48.890;9.278;2023-04-25T08:37:21;4.70;;;4.30;;
9968;SDS011;5025;48.890;9.278;2023-04-25T08:39:47;4.23;;;3.93;;
9968;SDS011;5025;48.890;9.278;2023-04-25T08:42:17;4.37;;;4.07;;
9968;SDS011;5025;48.890;9.278;2023-04-25T08:44:43;4.90;;;4.53;;
9968;SDS011;5025;48.890;9.278;2023-04-25T08:47:10;5.07;;;4.70;;
9968;SDS011;5025;48.890;9.278;2023-04-25T08:49:35;4.53;;;4.20;;
9968;SDS011;5025;48.890;9.278;2023-04-25T08:52:02;5.03;;;4.67;;
9968;SDS011;5025;48.890;9.278;2023-04-25T08:54:31;4.87;;;4.47;;
9968;SDS011;5025;48.890;9.278;2023-04-25T08:56:57;5.80;;;5.40;;
9968;SDS011;5025;48.890;9.278;2023-04-25T08:59:24;4.60;;;4.30;;
9968;SDS011;5025;48.890;9.278;2023-04-25T09:01:50;4.87;;;4.57;;
9968;SDS011;5025;48.890;9.278;2023-04-25T09:04:16;4.47;;;4.20;;
9968;SDS011;5025;48.890;9.278;2023-04-25T09:06:43;5.50;;;5.00;;
9968;SDS011;5025;48.890;9.278;2023-04-25T09:09:08;3.90;;;3.70;;
9968;SDS011;5025;48.890;9.278;2023-04-25T09:11:36;3.83;;;3.63;;
9968;SDS011;5025;48.890;9.278;2023-04-25T09:14:14;5.10;;;4.80;;
9968;SDS011;5025;48.890;9.278;2023-04-25T09:19:36;5.20;;;4.80;;
9968;SDS011;5025;48.890;9.278;2023-04-25T09:22:04;5.03;;;4.63;;
9968;SDS011;5025;48.890;9.278;2023-04-25T09:24:31;6.07;;;5.60;;
9968;SDS011;5025;48.890;9.278;2023-04-25T09:26:56;8.03;;;7.23;;
9968;SDS011;5025;48.890;9.278;2023-04-25T09:29:28;8.23;;;7.20;;
9968;SDS011;5025;48.890;9.278;2023-04-25T09:34:46;8.63;;;7.80;;
9968;SDS011;5025;48.890;9.278;2023-04-25T09:37:17;6.80;;;6.30;;
9968;SDS011;5025;48.890;9.278;2023-04-25T09:39:47;6.93;;;6.43;;
9968;SDS011;5025;48.890;9.278;2023-04-25T09:42:14;6.37;;;5.87;;
9968;SDS011;5025;48.890;9.278;2023-04-25T09:44:46;6.10;;;5.60;;
9968;SDS011;5025;48.890;9.278;2023-04-25T09:47:13;5.90;;;5.50;;
9968;SDS011;5025;48.890;9.278;2023-04-25T09:49:41;6.57;;;6.07;;
9968;SDS011;5025;48.890;9.278;2023-04-25T09:52:07;6.30;;;5.80;;
9968;SDS011;5025;48.890;9.278;2023-04-25T09:54:33;6.43;;;6.03;;
9968;SDS011;5025;48.890;9.278;2023-04-25T09:57:01;6.20;;;5.70;;
9968;SDS011;5025;48.890;9.278;2023-04-25T09:59:42;6.07;;;5.67;;
9968;SDS011;5025;48.890;9.278;2023-04-25T10:02:12;6.17;;;5.67;;
9968;SDS011;5025;48.890;9.278;2023-04-25T10:04:44;5.30;;;5.00;;
9968;SDS011;5025;48.890;9.278;2023-04-25T10:07:12;6.47;;;5.97;;
9968;SDS011;5025;48.890;9.278;2023-04-25T10:09:38;7.47;;;6.87;;
9968;SDS011;5025;48.890;9.278;2023-04-25T10:12:04;8.10;;;7.40;;
9968;SDS011;5025;48.890;9.278;2023-04-25T10:14:31;7.20;;;6.60;;
9968;SDS011;5025;48.890;9.278;2023-04-25T10:16:57;7.87;;;7.17;;
9968;SDS011;5025;48.890;9.278;2023-04-25T10:19:23;7.37;;;6.60;;
9968;SDS011;5025;48.890;9.278;2023-04-25T10:21:50;6.93;;;6.30;;
9968;SDS011;5025;48.890;9.278;2023-04-25T10:24:19;6.23;;;5.73;;
9968;SDS011;5025;48.890;9.278;2023-04-25T10:26:45;6.60;;;6.00;;
9968;SDS011;5025;48.890;9.278;2023-04-25T10:29:11;5.23;;;4.93;;
9968;SDS011;5025;48.890;9.278;2023-04-25T10:31:44;6.30;;;5.80;;
9968;SDS011;5025;48.890;9.278;2023-04-25T10:34:11;5.40;;;4.90;;
9968;SDS011;5025;48.890;9.278;2023-04-25T10:36:37;4.17;;;3.87;;
9968;SDS011;5025;48.890;9.278;2023-04-25T10:39:05;3.83;;;3.63;;
9968;SDS011;5025;48.890;9.278;2023-04-25T10:41:32;3.83;;;3.63;;
9968;SDS011;5025;48.890;9.278;2023-04-25T10:44:10;3.73;;;3.43;;
9968;SDS011;5025;48.890;9.278;2023-04-25T10:46:38;4.97;;;4.47;;
9968;SDS011;5025;48.890;9.278;2023-04-25T10:49:03;4.60;;;4.30;;
9968;SDS011;5025;48.890;9.278;2023-04-25T10:51:32;4.53;;;4.13;;
9968;SDS011;5025;48.890;9.278;2023-04-25T10:54:02;4.67;;;4.27;;
9968;SDS011;5025;48.890;9.278;2023-04-25T10:56:48;4.33;;;3.90;;
9968;SDS011;5025;48.890;9.278;2023-04-25T10:59:15;4.40;;;4.00;;
9968;SDS011;5025;48.890;9.278;2023-04-25T11:01:46;4.13;;;3.83;;
9968;SDS011;5025;48.890;9.278;2023-04-25T11:04:22;4.33;;;4.03;;
9968;SDS011;5025;48.890;9.278;2023-04-25T11:07:00;4.80;;;4.50;;
9968;SDS011;5025;48.890;9.278;2023-04-25T11:09:47;4.50;;;4.20;;
9968;SDS011;5025;48.890;9.278;2023-04-25T11:12:13;4.50;;;4.20;;
9968;SDS011;5025;48.890;9.278;2023-04-25T11:14:39;3.93;;;3.63;;
9968;SDS011;5025;48.890;9.278;2023-04-25T11:17:05;4.13;;;3.83;;
9968;SDS011;5025;48.890;9.278;2023-04-25T11:19:31;3.67;;;3.47;;
9968;SDS011;5025;48.890;9.278;2023-04-25T11:21:57;3.50;;;3.30;;
9968;SDS011;5025;48.890;9.278;2023-04-25T11:24:30;4.00;;;3.70;;
9968;SDS011;5025;48.890;9.278;2023-04-25T11:27:03;4.67;;;4.30;;
9968;SDS011;5025;48.890;9.278;2023-04-25T11:29:31;4.93;;;4.53;;
9968;SDS011;5025;48.890;9.278;2023-04-25T11:31:58;4.23;;;3.93;;
9968;SDS011;5025;48.890;9.278;2023-04-25T11:34:26;4.80;;;4.50;;
9968;SDS011;5025;48.890;9.278;2023-04-25T11:36:52;5.77;;;5.33;;
9968;SDS011;5025;48.890;9.278;2023-04-25T11:39:18;4.90;;;4.50;;
9968;SDS011;5025;48.890;9.278;2023-04-25T11:41:44;4.70;;;4.40;;
9968;SDS011;5025;48.890;9.278;2023-04-25T11:44:10;4.93;;;4.63;;
9968;SDS011;5025;48.890;9.278;2023-04-25T11:46:35;4.27;;;4.00;;
9968;SDS011;5025;48.890;9.278;2023-04-25T11:49:00;4.03;;;3.83;;
9968;SDS011;5025;48.890;9.278;2023-04-25T11:51:26;3.83;;;3.63;;
9968;SDS011;5025;48.890;9.278;2023-04-25T11:53:52;4.83;;;4.17;;
9968;SDS011;5025;48.890;9.278;2023-04-25T11:56:17;4.40;;;4.00;;
9968;SDS011;5025;48.890;9.278;2023-04-25T11:58:55;4.30;;;4.00;;
9968;SDS011;5025;48.890;9.278;2023-04-25T12:01:25;4.20;;;3.90;;
9968;SDS011;5025;48.890;9.278;2023-04-25T12:03:58;5.57;;;5.00;;
9968;SDS011;5025;48.890;9.278;2023-04-25T12:06:36;5.10;;;4.73;;
9968;SDS011;5025;48.890;9.278;2023-04-25T12:09:06;5.30;;;4.90;;
9968;SDS011;5025;48.890;9.278;2023-04-25T12:11:40;4.90;;;4.53;;
9968;SDS011;5025;48.890;9.278;2023-04-25T12:14:06;5.57;;;5.17;;
9968;SDS011;5025;48.890;9.278;2023-04-25T12:16:44;6.17;;;5.67;;
9968;SDS011;5025;48.890;9.278;2023-04-25T12:19:14;6.43;;;5.83;;
9968;SDS011;5025;48.890;9.278;2023-04-25T12:21:40;5.10;;;4.70;;
9968;SDS011;5025;48.890;9.278;2023-04-25T12:24:10;5.60;;;5.10;;
9968;SDS011;5025;48.890;9.278;2023-04-25T12:29:31;5.67;;;5.23;;
9968;SDS011;5025;48.890;9.278;2023-04-25T12:31:57;5.40;;;4.90;;
9968;SDS011;5025;48.890;9.278;2023-04-25T12:34:23;5.57;;;5.17;;
9968;SDS011;5025;48.890;9.278;2023-04-25T12:36:49;5.93;;;5.43;;
9968;SDS011;5025;48.890;9.278;2023-04-25T12:39:20;5.97;;;5.47;;
9968;SDS011;5025;48.890;9.278;2023-04-25T12:41:47;6.53;;;5.93;;
9968;SDS011;5025;48.890;9.278;2023-04-25T12:44:13;6.17;;;5.57;;
9968;SDS011;5025;48.890;9.278;2023-04-25T12:46:39;6.33;;;5.73;;
9968;SDS011;5025;48.890;9.278;2023-04-25T12:49:05;6.43;;;5.83;;
9968;SDS011;5025;48.890;9.278;2023-04-25T12:51:32;6.43;;;5.93;;
9968;SDS011;5025;48.890;9.278;2023-04-25T12:53:58;7.20;;;6.50;;
9968;SDS011;5025;48.890;9.278;2023-04-25T12:56:25;7.47;;;6.77;;
9968;SDS011;5025;48.890;9.278;2023-04-25T12:58:51;6.47;;;5.97;;
9968;SDS011;5025;48.890;9.278;2023-04-25T13:01:17;6.97;;;6.37;;
9968;SDS011;5025;48.890;9.278;2023-04-25T13:03:42;7.67;;;6.93;;
9968;SDS011;5025;48.890;9.278;2023-04-25T13:06:08;8.00;;;7.20;;
9968;SDS011;5025;48.890;9.278;2023-04-25T13:08:33;7.87;;;7.17;;
